ORLYDB

World´s safest download option! Anonymous Downloads & Identity Protection!
2015-01-29 10:14:31 MP3 Sian_Anderson_-_BBC1Xtra-SAT-01-29-2015-TALiON DL 265.4MB | 1F
2015-01-29 10:10:21 MP3 Die_Drei_Fragezeichen_-_F156_Im_Netz_Des_Drachen-DE-2012-VOiCE DL
2015-01-29 10:06:26 PSP Gakuen_K_Wonderful_School_Days_JPN_PROPER_READNFO_PSP-HR DL 786.4MB | 42F
2015-01-29 10:06:04 XXX North.Pole.113.XXX.720P.WEBRIP.MP4-GUSH DL
2015-01-29 10:04:13 x264 Cockneys.Vs.Zombies.2012.iTALiAN.1080p.BluRay.x264-ZOMBiE DL 6712.5MB | 71F
2015-01-29 10:03:28 XXX North.Pole.113.XXX.1080P.WEBRIP.MP4-GUSH DL 4621.0MB | 98F
2015-01-29 10:00:54 TV-x264 Getting.On.Fiese.alte.Knochen.S02E01.Die.Aasgeier.German.DL.WS.1080p.HDTV.x264-CNHD DL 1109.1MB | 24F
2015-01-29 09:58:36 MP3 Mistajam_-_BBC1Xtra-SAT-01-28-2015-TALiON DL 268.4MB | 1F
2015-01-29 09:52:11 APPS PLURALSIGHT_ORACLE_DEVELOPER_ESSENTIALS_DATA_TYPES_TUTORIAL-kEISO DL 268.6MB | 6F
2015-01-29 09:51:34 BLURAY Sieben.schwarze.Noten.1977.DUAL.COMPLETE.BLURAY-iFPD DL 23909.8MB | 52F
2015-01-29 09:48:22 TV-DVDRIP Great.British.Railway.Journeys.S05E20.DVDRip.X264-FUtV DL 334.0MB | 29F
2015-01-29 09:47:51 XXX Big.Tit.Fanatic.XXX.720p.WEBRIP.x264-TBP DL
2015-01-29 09:47:33 TV-x264 De.Wereld.Draait.Door.2015.01.28.DUTCH.PDTV.x264-iFH DL 454.6MB | 34F
2015-01-29 09:47:19 x264 I.Girasoli.1970.iTALiAN.iNTERNAL.BDRip.x264-ZOMBiE DL 1163.0MB | 25F
2015-01-29 09:47:00 TV-DVDRIP Great.British.Railway.Journeys.S05E19.DVDRip.X264-FUtV DL 321.0MB | 28F
2015-01-29 09:45:37 TV-DVDRIP Great.British.Railway.Journeys.S05E18.DVDRip.X264-FUtV DL 347.0MB | 30F
2015-01-29 09:44:51 MP3 Jay_Naidu-Me_and_You-(MCT37)-WEB-2014-YOU DL 47.0MB | 3F
2015-01-29 09:44:13 TV-DVDRIP Great.British.Railway.Journeys.S05E17.DVDRip.X264-FUtV DL 347.0MB | 30F
2015-01-29 09:42:48 TV-DVDRIP Great.British.Railway.Journeys.S05E16.DVDRip.X264-FUtV DL 376.0MB | 31F
2015-01-29 09:41:50 x264 I.Girasoli.1970.iTALiAN.720p.BluRay.x264-ZOMBiE DL 3353.3MB | 71F
2015-01-29 09:41:46 x264 I.Girasoli.1970.iTALiAN.1080p.BluRay.x264-ZOMBiE DL
2015-01-29 09:41:23 TV-DVDRIP Great.British.Railway.Journeys.S05E15.DVDRip.X264-FUtV DL 366.0MB | 31F
2015-01-29 09:40:01 TV-DVDRIP Great.British.Railway.Journeys.S05E14.DVDRip.X264-FUtV DL 320.0MB | 28F
2015-01-29 09:39:13 x264 Thrasher.Hell.Of.A.Year.2013.DVDRiP.x264-SCARED DL 736.0MB | 16F
2015-01-29 09:38:41 TV-x264 Vem.Vet.Mest.S14E13.SWEDiSH.WEBRip.x264-SweWR DL 155.6MB | 14F
2015-01-29 09:38:37 TV-DVDRIP Great.British.Railway.Journeys.S05E13.DVDRip.X264-FUtV DL 360.0MB | 24F
2015-01-29 09:37:12 TV-DVDRIP Great.British.Railway.Journeys.S05E12.DVDRip.X264-FUtV DL 351.0MB | 30F
2015-01-29 09:35:48 TV-DVDRIP Great.British.Railway.Journeys.S05E11.DVDRip.X264-FUtV DL 361.0MB | 31F
2015-01-29 09:34:25 TV-DVDRIP Great.British.Railway.Journeys.S05E10.DVDRip.X264-FUtV DL 300.0MB | 20F
2015-01-29 09:33:22 MP3 Keviin_Scanna_-_Club_FG-SAT-01-29-2015-TALiON DL 94.9MB | 1F
2015-01-29 09:33:02 TV-DVDRIP Great.British.Railway.Journeys.S05E09.DVDRip.X264-FUtV DL 291.0MB | 26F
2015-01-29 09:31:37 TV-DVDRIP Great.British.Railway.Journeys.S05E08.DVDRip.X264-FUtV DL 314.0MB | 28F
2015-01-29 09:30:39 0DAY Sea.of.Lies.Burning.Coast.Collectors.Edition.v1.0-TE DL
2015-01-29 09:30:12 TV-DVDRIP Great.British.Railway.Journeys.S05E07.DVDRip.X264-FUtV DL 307.0MB | 28F
2015-01-29 09:29:16 TV-x264 Shortland.Street.S23E235.HDTV.x264-FiHTV DL 231.0MB | 15F
2015-01-29 09:28:48 TV-DVDRIP Great.British.Railway.Journeys.S05E06.DVDRip.X264-FUtV DL 337.0MB | 29F
2015-01-29 09:27:33 TV-x264 Vem.Vet.Mest.S14E13.SWEDiSH.720p.WEBRip.x264-SweWR DL 338.1MB | 8F
2015-01-29 09:27:23 TV-DVDRIP Great.British.Railway.Journeys.S05E05.DVDRip.X264-FUtV DL 341.0MB | 30F
2015-01-29 09:26:10 TV-x264 Natholdet.S10E15.Ulla.Terkelsen.DANiSH.HDTV.x264-TVBYEN DL 185.5MB | 15F
2015-01-29 09:25:59 TV-DVDRIP Great.British.Railway.Journeys.S05E04.DVDRip.X264-FUtV DL 300.0MB | 27F
2015-01-29 09:24:35 TV-DVDRIP Great.British.Railway.Journeys.S05E03.DVDRip.X264-FUtV DL 349.0MB | 30F
2015-01-29 09:23:11 TV-DVDRIP Great.British.Railway.Journeys.S05E02.DVDRip.X264-FUtV DL 343.0MB | 29F
2015-01-29 09:22:09 XXX FirstAnalQuest.15.01.28.Shrima.Malati.XXX.1080p.MP4-KTR DL 1168.0MB | 27F
2015-01-29 09:21:54 UNKNOWN Heroes.of.Might.and.Magic.3.HD.Edition.GERMAN-ENiGMA DL
2015-01-29 09:21:46 TV-DVDRIP Great.British.Railway.Journeys.S05E01.DVDRip.X264-FUtV DL 353.0MB | 30F
2015-01-29 09:20:02 x264 Frankreich.privat.Die.sexuellen.Obsessionen.einer.Schauspielerin.2014.German.1080p.BluRay.x264-ENCOUNTERS DL 4608.0MB | 90F
2015-01-29 09:19:58 TV-x264 Paa.Liv.Og.Dod.S02E03.NORWEGiAN.720p.AHDTV.x264-TvNORGE DL 1024.0MB | 20F
2015-01-29 09:17:53 x264 Gentle.Giant.The.Power.And.The.Glory.1974.Steven.Wilson.Mix.2014.iNTERNAL.1080p.PURE.MBluRay.x264-PURELiQUiD DL
2015-01-29 09:17:38 x264 Gentle.Giant.The.Power.And.The.Glory.1974.Instrumental.Mix.2014.iNTERNAL.1080p.PURE.MBluRay.x264-PURELiQUiD DL
2015-01-29 09:17:06 x264 Gentle.Giant.The.Power.And.The.Glory.1974.Original.Studio.Mix.1974.iNTERNAL.1080p.PURE.MBluRay.x264-PURELiQUiD DL
 ░                                                                      ░
 ▒                                                                      ▒
 ▓     Server Time:                               info@orlydb.com       ▓
 █░    2015-01-29 10:15:09                        Hide/Show header     ░█
 █▄                                                                    ▄█
 ▀█▄                            ░▄▄▄▄▄▄▄▄░                            ▄█▀
  ▀█▄▒                 ░▄▄█████████▀▀▀▀█████████▄▄░                 ▒▄█▀
   ▀██▄░░     ░▄▄██████████▀▀░              ░▀▀██████████▄▄░     ░░▄██▀
    ░▀███████████▀▀                                    ▀▀███████████▀░
        ▀▀▀░    █   ▄▄▄▄  ▄▄▄▄  ▄▄  ▄▄   ▄ ▄▄▄▄  ▄▄▄▄    █    ░▀▀▀
                ▓   ██  █ ██ ██ ██   █▄ ▄█ ██  █ ██ ██   ▓
                ▒   ▓█  █ ▓█▄██ ▓█    ▓██  ▓█  █ ▓█▄█▀   ▒
                ▓   ▓████ ▓█ █▄ ▓█▄▄▄ ▓██  ▓███▀ ▓█▄██   ▓
                █▄▄▄▄▄▄▄▄▄▄▄▄▄▄▄▄▄▄▄▄▄▄▄▄▄▄▄▄▄▄▄▄▄▄▄▄▄▄▄▄█